sensor_id;sensor_type;location;lat;lon;timestamp;P1;durP1;ratioP1;P2;durP2;ratioP2
43893;SDS011;29556;50.846;4.442;2022-10-19T00:01:55;3.25;;;1.75;;
43893;SDS011;29556;50.846;4.442;2022-10-19T00:04:20;0.40;;;0.40;;
43893;SDS011;29556;50.846;4.442;2022-10-19T00:06:46;2.05;;;0.50;;
43893;SDS011;29556;50.846;4.442;2022-10-19T00:09:13;1.65;;;0.73;;
43893;SDS011;29556;50.846;4.442;2022-10-19T00:11:42;0.65;;;0.43;;
43893;SDS011;29556;50.846;4.442;2022-10-19T00:14:10;1.33;;;0.82;;
43893;SDS011;29556;50.846;4.442;2022-10-19T00:16:39;0.73;;;0.57;;
43893;SDS011;29556;50.846;4.442;2022-10-19T00:19:08;0.75;;;0.70;;
43893;SDS011;29556;50.846;4.442;2022-10-19T00:21:36;0.50;;;0.50;;
43893;SDS011;29556;50.846;4.442;2022-10-19T00:24:03;0.80;;;0.52;;
43893;SDS011;29556;50.846;4.442;2022-10-19T00:26:29;0.60;;;0.30;;
43893;SDS011;29556;50.846;4.442;2022-10-19T00:28:55;2.60;;;0.55;;
43893;SDS011;29556;50.846;4.442;2022-10-19T00:31:21;0.52;;;0.32;;
43893;SDS011;29556;50.846;4.442;2022-10-19T00:33:48;0.85;;;0.40;;
43893;SDS011;29556;50.846;4.442;2022-10-19T00:36:18;0.30;;;0.30;;
43893;SDS011;29556;50.846;4.442;2022-10-19T00:38:53;0.63;;;0.55;;
43893;SDS011;29556;50.846;4.442;2022-10-19T00:41:20;1.67;;;0.47;;
43893;SDS011;29556;50.846;4.442;2022-10-19T00:46:15;4.70;;;0.70;;
43893;SDS011;29556;50.846;4.442;2022-10-19T00:48:41;0.47;;;0.40;;
43893;SDS011;29556;50.846;4.442;2022-10-19T00:51:07;0.60;;;0.50;;
43893;SDS011;29556;50.846;4.442;2022-10-19T00:53:32;1.52;;;0.50;;
43893;SDS011;29556;50.846;4.442;2022-10-19T00:56:01;0.43;;;0.40;;
43893;SDS011;29556;50.846;4.442;2022-10-19T00:58:30;0.47;;;0.25;;
43893;SDS011;29556;50.846;4.442;2022-10-19T01:00:58;0.90;;;0.38;;
43893;SDS011;29556;50.846;4.442;2022-10-19T01:03:26;0.82;;;0.80;;
43893;SDS011;29556;50.846;4.442;2022-10-19T01:05:53;1.00;;;0.75;;
43893;SDS011;29556;50.846;4.442;2022-10-19T01:08:19;0.55;;;0.55;;
43893;SDS011;29556;50.846;4.442;2022-10-19T01:10:49;0.75;;;0.50;;
43893;SDS011;29556;50.846;4.442;2022-10-19T01:13:29;0.40;;;0.28;;
43893;SDS011;29556;50.846;4.442;2022-10-19T01:24:55;1.48;;;0.30;;
43893;SDS011;29556;50.846;4.442;2022-10-19T01:27:43;0.70;;;0.50;;
43893;SDS011;29556;50.846;4.442;2022-10-19T01:30:27;1.98;;;0.57;;
43893;SDS011;29556;50.846;4.442;2022-10-19T01:33:51;0.30;;;0.25;;
43893;SDS011;29556;50.846;4.442;2022-10-19T01:36:38;1.17;;;0.32;;
43893;SDS011;29556;50.846;4.442;2022-10-19T01:39:23;1.55;;;0.32;;
43893;SDS011;29556;50.846;4.442;2022-10-19T01:44:54;1.17;;;0.30;;
43893;SDS011;29556;50.846;4.442;2022-10-19T01:47:33;0.85;;;0.80;;
43893;SDS011;29556;50.846;4.442;2022-10-19T01:50:08;0.98;;;0.60;;
43893;SDS011;29556;50.846;4.442;2022-10-19T01:52:44;0.50;;;0.32;;
43893;SDS011;29556;50.846;4.442;2022-10-19T01:55:13;0.77;;;0.65;;
43893;SDS011;29556;50.846;4.442;2022-10-19T01:57:45;0.60;;;0.60;;
43893;SDS011;29556;50.846;4.442;2022-10-19T02:00:13;0.63;;;0.52;;
43893;SDS011;29556;50.846;4.442;2022-10-19T02:02:42;0.50;;;0.38;;
43893;SDS011;29556;50.846;4.442;2022-10-19T02:05:11;1.15;;;0.47;;
43893;SDS011;29556;50.846;4.442;2022-10-19T02:07:39;0.75;;;0.65;;
43893;SDS011;29556;50.846;4.442;2022-10-19T02:10:09;2.77;;;0.80;;
43893;SDS011;29556;50.846;4.442;2022-10-19T02:12:35;3.20;;;0.45;;
43893;SDS011;29556;50.846;4.442;2022-10-19T02:15:02;0.93;;;0.38;;
43893;SDS011;29556;50.846;4.442;2022-10-19T02:17:34;0.73;;;0.70;;
43893;SDS011;29556;50.846;4.442;2022-10-19T02:20:04;0.40;;;0.40;;
43893;SDS011;29556;50.846;4.442;2022-10-19T02:22:31;5.88;;;0.57;;
43893;SDS011;29556;50.846;4.442;2022-10-19T02:24:57;0.85;;;0.43;;
43893;SDS011;29556;50.846;4.442;2022-10-19T02:27:23;1.27;;;0.60;;
43893;SDS011;29556;50.846;4.442;2022-10-19T02:29:49;0.85;;;0.40;;
43893;SDS011;29556;50.846;4.442;2022-10-19T02:32:15;1.27;;;1.00;;
43893;SDS011;29556;50.846;4.442;2022-10-19T02:34:40;0.55;;;0.55;;
43893;SDS011;29556;50.846;4.442;2022-10-19T02:37:06;0.40;;;0.38;;
43893;SDS011;29556;50.846;4.442;2022-10-19T02:39:32;0.80;;;0.52;;
43893;SDS011;29556;50.846;4.442;2022-10-19T02:42:03;0.70;;;0.43;;
43893;SDS011;29556;50.846;4.442;2022-10-19T02:44:36;1.45;;;0.95;;
43893;SDS011;29556;50.846;4.442;2022-10-19T02:47:09;1.13;;;0.75;;
43893;SDS011;29556;50.846;4.442;2022-10-19T02:49:42;1.77;;;0.50;;
43893;SDS011;29556;50.846;4.442;2022-10-19T02:52:09;1.92;;;0.50;;
43893;SDS011;29556;50.846;4.442;2022-10-19T02:54:37;0.73;;;0.73;;
43893;SDS011;29556;50.846;4.442;2022-10-19T02:57:06;0.65;;;0.47;;
43893;SDS011;29556;50.846;4.442;2022-10-19T02:59:42;0.80;;;0.60;;
43893;SDS011;29556;50.846;4.442;2022-10-19T03:02:08;0.60;;;0.25;;
43893;SDS011;29556;50.846;4.442;2022-10-19T03:04:34;0.85;;;0.60;;
43893;SDS011;29556;50.846;4.442;2022-10-19T03:07:00;0.28;;;0.28;;
43893;SDS011;29556;50.846;4.442;2022-10-19T03:09:26;1.17;;;1.05;;
43893;SDS011;29556;50.846;4.442;2022-10-19T03:11:51;2.88;;;0.80;;
43893;SDS011;29556;50.846;4.442;2022-10-19T03:14:19;2.58;;;0.65;;
43893;SDS011;29556;50.846;4.442;2022-10-19T03:16:44;3.30;;;1.67;;
43893;SDS011;29556;50.846;4.442;2022-10-19T03:19:10;2.15;;;0.45;;
43893;SDS011;29556;50.846;4.442;2022-10-19T03:21:35;1.88;;;0.60;;
43893;SDS011;29556;50.846;4.442;2022-10-19T03:24:01;0.70;;;0.60;;
43893;SDS011;29556;50.846;4.442;2022-10-19T03:26:27;0.20;;;0.20;;
43893;SDS011;29556;50.846;4.442;2022-10-19T03:28:52;0.68;;;0.47;;
43893;SDS011;29556;50.846;4.442;2022-10-19T03:31:18;3.05;;;0.68;;
43893;SDS011;29556;50.846;4.442;2022-10-19T03:33:44;0.40;;;0.40;;
43893;SDS011;29556;50.846;4.442;2022-10-19T03:38:39;5.00;;;0.85;;
43893;SDS011;29556;50.846;4.442;2022-10-19T03:41:05;0.90;;;0.50;;
43893;SDS011;29556;50.846;4.442;2022-10-19T03:43:31;1.42;;;0.50;;
43893;SDS011;29556;50.846;4.442;2022-10-19T03:45:57;0.93;;;0.60;;
43893;SDS011;29556;50.846;4.442;2022-10-19T03:48:23;0.47;;;0.43;;
43893;SDS011;29556;50.846;4.442;2022-10-19T03:50:56;0.93;;;0.50;;
43893;SDS011;29556;50.846;4.442;2022-10-19T03:53:23;1.48;;;0.77;;
43893;SDS011;29556;50.846;4.442;2022-10-19T03:55:49;2.25;;;0.82;;
43893;SDS011;29556;50.846;4.442;2022-10-19T03:58:14;2.22;;;0.68;;
43893;SDS011;29556;50.846;4.442;2022-10-19T04:00:40;0.82;;;0.80;;
43893;SDS011;29556;50.846;4.442;2022-10-19T04:03:06;0.82;;;0.65;;
43893;SDS011;29556;50.846;4.442;2022-10-19T04:05:31;0.85;;;0.60;;
43893;SDS011;29556;50.846;4.442;2022-10-19T04:07:57;1.60;;;1.02;;
43893;SDS011;29556;50.846;4.442;2022-10-19T04:10:22;0.80;;;0.80;;
43893;SDS011;29556;50.846;4.442;2022-10-19T04:12:49;0.43;;;0.40;;
43893;SDS011;29556;50.846;4.442;2022-10-19T04:15:18;1.05;;;0.85;;
43893;SDS011;29556;50.846;4.442;2022-10-19T04:17:47;0.40;;;0.40;;
43893;SDS011;29556;50.846;4.442;2022-10-19T04:20:12;1.55;;;1.00;;
43893;SDS011;29556;50.846;4.442;2022-10-19T04:22:38;2.20;;;0.50;;
43893;SDS011;29556;50.846;4.442;2022-10-19T04:25:03;1.13;;;0.68;;
43893;SDS011;29556;50.846;4.442;2022-10-19T04:27:30;0.80;;;0.70;;
43893;SDS011;29556;50.846;4.442;2022-10-19T04:29:55;0.90;;;0.65;;
43893;SDS011;29556;50.846;4.442;2022-10-19T04:32:21;1.13;;;0.70;;
43893;SDS011;29556;50.846;4.442;2022-10-19T04:34:46;3.40;;;0.82;;
43893;SDS011;29556;50.846;4.442;2022-10-19T04:37:12;1.52;;;0.75;;
43893;SDS011;29556;50.846;4.442;2022-10-19T04:39:38;0.57;;;0.50;;
43893;SDS011;29556;50.846;4.442;2022-10-19T04:42:05;1.20;;;1.13;;
43893;SDS011;29556;50.846;4.442;2022-10-19T04:44:31;0.43;;;0.40;;
43893;SDS011;29556;50.846;4.442;2022-10-19T04:46:56;3.53;;;0.63;;
43893;SDS011;29556;50.846;4.442;2022-10-19T04:49:22;5.30;;;0.80;;
43893;SDS011;29556;50.846;4.442;2022-10-19T04:51:47;2.05;;;0.98;;
43893;SDS011;29556;50.846;4.442;2022-10-19T04:54:13;1.35;;;0.77;;
43893;SDS011;29556;50.846;4.442;2022-10-19T04:56:38;1.75;;;0.60;;
43893;SDS011;29556;50.846;4.442;2022-10-19T04:59:04;1.75;;;1.02;;
43893;SDS011;29556;50.846;4.442;2022-10-19T05:01:30;3.47;;;0.80;;
43893;SDS011;29556;50.846;4.442;2022-10-19T05:03:56;1.35;;;0.73;;
43893;SDS011;29556;50.846;4.442;2022-10-19T05:06:24;1.50;;;0.80;;
43893;SDS011;29556;50.846;4.442;2022-10-19T05:08:50;1.85;;;1.08;;
43893;SDS011;29556;50.846;4.442;2022-10-19T05:11:16;1.70;;;1.13;;
43893;SDS011;29556;50.846;4.442;2022-10-19T05:13:43;0.73;;;0.70;;
43893;SDS011;29556;50.846;4.442;2022-10-19T05:16:10;1.48;;;0.70;;
43893;SDS011;29556;50.846;4.442;2022-10-19T05:18:42;4.05;;;0.77;;
43893;SDS011;29556;50.846;4.442;2022-10-19T05:21:11;0.63;;;0.63;;
43893;SDS011;29556;50.846;4.442;2022-10-19T05:23:39;3.20;;;1.38;;
43893;SDS011;29556;50.846;4.442;2022-10-19T05:28:33;1.38;;;0.75;;
43893;SDS011;29556;50.846;4.442;2022-10-19T05:33:31;2.70;;;1.40;;
43893;SDS011;29556;50.846;4.442;2022-10-19T05:36:16;1.23;;;0.80;;
43893;SDS011;29556;50.846;4.442;2022-10-19T05:38:44;2.75;;;0.88;;
43893;SDS011;29556;50.846;4.442;2022-10-19T05:41:10;1.85;;;0.70;;
43893;SDS011;29556;50.846;4.442;2022-10-19T05:43:37;1.40;;;0.77;;
43893;SDS011;29556;50.846;4.442;2022-10-19T05:46:07;3.80;;;0.77;;
43893;SDS011;29556;50.846;4.442;2022-10-19T05:48:39;5.40;;;1.30;;
43893;SDS011;29556;50.846;4.442;2022-10-19T05:51:07;0.80;;;0.80;;
43893;SDS011;29556;50.846;4.442;2022-10-19T05:53:34;4.25;;;0.50;;
43893;SDS011;29556;50.846;4.442;2022-10-19T05:56:00;1.35;;;0.90;;
43893;SDS011;29556;50.846;4.442;2022-10-19T05:58:28;1.60;;;0.77;;
43893;SDS011;29556;50.846;4.442;2022-10-19T06:00:55;7.60;;;1.60;;
43893;SDS011;29556;50.846;4.442;2022-10-19T06:03:23;3.67;;;0.77;;
43893;SDS011;29556;50.846;4.442;2022-10-19T06:05:50;0.82;;;0.60;;
43893;SDS011;29556;50.846;4.442;2022-10-19T06:08:16;2.08;;;1.02;;
43893;SDS011;29556;50.846;4.442;2022-10-19T06:10:43;3.03;;;1.20;;
43893;SDS011;29556;50.846;4.442;2022-10-19T06:13:09;5.65;;;0.63;;
43893;SDS011;29556;50.846;4.442;2022-10-19T06:15:35;2.53;;;0.65;;
43893;SDS011;29556;50.846;4.442;2022-10-19T06:18:04;1.25;;;1.10;;
43893;SDS011;29556;50.846;4.442;2022-10-19T06:20:33;1.15;;;0.77;;
43893;SDS011;29556;50.846;4.442;2022-10-19T06:22:59;0.68;;;0.60;;
43893;SDS011;29556;50.846;4.442;2022-10-19T06:25:25;0.70;;;0.70;;
43893;SDS011;29556;50.846;4.442;2022-10-19T06:27:50;1.77;;;0.80;;
43893;SDS011;29556;50.846;4.442;2022-10-19T06:30:17;0.63;;;0.63;;
43893;SDS011;29556;50.846;4.442;2022-10-19T06:32:43;2.85;;;0.98;;
43893;SDS011;29556;50.846;4.442;2022-10-19T06:35:08;1.25;;;0.98;;
43893;SDS011;29556;50.846;4.442;2022-10-19T06:37:34;1.05;;;0.95;;
43893;SDS011;29556;50.846;4.442;2022-10-19T06:39:59;2.13;;;0.73;;
43893;SDS011;29556;50.846;4.442;2022-10-19T06:42:25;1.48;;;0.70;;
43893;SDS011;29556;50.846;4.442;2022-10-19T06:44:51;1.10;;;0.90;;
43893;SDS011;29556;50.846;4.442;2022-10-19T06:47:17;1.75;;;1.20;;
43893;SDS011;29556;50.846;4.442;2022-10-19T06:49:42;3.00;;;0.90;;
43893;SDS011;29556;50.846;4.442;2022-10-19T06:52:08;1.95;;;0.80;;
43893;SDS011;29556;50.846;4.442;2022-10-19T06:54:34;3.03;;;1.00;;
43893;SDS011;29556;50.846;4.442;2022-10-19T06:57:00;1.20;;;1.00;;
43893;SDS011;29556;50.846;4.442;2022-10-19T06:59:26;5.45;;;2.08;;
43893;SDS011;29556;50.846;4.442;2022-10-19T07:01:52;0.98;;;0.60;;
43893;SDS011;29556;50.846;4.442;2022-10-19T07:04:18;1.98;;;1.48;;
43893;SDS011;29556;50.846;4.442;2022-10-19T07:06:45;2.53;;;1.15;;
43893;SDS011;29556;50.846;4.442;2022-10-19T07:09:12;3.00;;;0.80;;
43893;SDS011;29556;50.846;4.442;2022-10-19T07:11:38;4.78;;;1.00;;
43893;SDS011;29556;50.846;4.442;2022-10-19T07:14:04;8.55;;;0.98;;
43893;SDS011;29556;50.846;4.442;2022-10-19T07:16:30;4.43;;;0.95;;
43893;SDS011;29556;50.846;4.442;2022-10-19T07:18:56;3.33;;;0.93;;
43893;SDS011;29556;50.846;4.442;2022-10-19T07:21:24;4.30;;;1.13;;
43893;SDS011;29556;50.846;4.442;2022-10-19T07:23:50;1.48;;;1.02;;
43893;SDS011;29556;50.846;4.442;2022-10-19T07:26:17;3.42;;;1.05;;
43893;SDS011;29556;50.846;4.442;2022-10-19T07:28:50;3.30;;;1.23;;
43893;SDS011;29556;50.846;4.442;2022-10-19T07:31:18;3.42;;;1.45;;
43893;SDS011;29556;50.846;4.442;2022-10-19T07:33:46;1.25;;;0.90;;
43893;SDS011;29556;50.846;4.442;2022-10-19T07:36:15;3.35;;;1.48;;
43893;SDS011;29556;50.846;4.442;2022-10-19T07:38:41;0.85;;;0.70;;
43893;SDS011;29556;50.846;4.442;2022-10-19T07:41:09;4.40;;;1.10;;
43893;SDS011;29556;50.846;4.442;2022-10-19T07:43:37;3.20;;;1.02;;
43893;SDS011;29556;50.846;4.442;2022-10-19T07:46:07;1.23;;;1.13;;
43893;SDS011;29556;50.846;4.442;2022-10-19T07:48:38;2.95;;;1.00;;
43893;SDS011;29556;50.846;4.442;2022-10-19T07:51:14;4.22;;;1.05;;
43893;SDS011;29556;50.846;4.442;2022-10-19T07:53:42;3.63;;;1.33;;
43893;SDS011;29556;50.846;4.442;2022-10-19T07:56:09;3.97;;;0.98;;
43893;SDS011;29556;50.846;4.442;2022-10-19T07:58:36;1.50;;;1.20;;
43893;SDS011;29556;50.846;4.442;2022-10-19T08:01:11;3.58;;;1.80;;
43893;SDS011;29556;50.846;4.442;2022-10-19T08:03:41;2.15;;;1.25;;
43893;SDS011;29556;50.846;4.442;2022-10-19T08:06:09;2.88;;;1.48;;
43893;SDS011;29556;50.846;4.442;2022-10-19T08:08:36;2.00;;;1.40;;
43893;SDS011;29556;50.846;4.442;2022-10-19T08:11:09;3.90;;;1.20;;
43893;SDS011;29556;50.846;4.442;2022-10-19T08:13:46;2.72;;;1.38;;
43893;SDS011;29556;50.846;4.442;2022-10-19T08:16:30;2.08;;;1.63;;
43893;SDS011;29556;50.846;4.442;2022-10-19T08:19:02;3.95;;;1.27;;
43893;SDS011;29556;50.846;4.442;2022-10-19T08:21:31;4.18;;;1.67;;
43893;SDS011;29556;50.846;4.442;2022-10-19T08:23:57;4.20;;;2.20;;
43893;SDS011;29556;50.846;4.442;2022-10-19T08:26:24;4.00;;;1.58;;
43893;SDS011;29556;50.846;4.442;2022-10-19T08:29:00;2.63;;;1.70;;
43893;SDS011;29556;50.846;4.442;2022-10-19T08:31:27;8.65;;;2.08;;
43893;SDS011;29556;50.846;4.442;2022-10-19T08:33:55;2.10;;;1.40;;
43893;SDS011;29556;50.846;4.442;2022-10-19T08:36:24;5.07;;;1.73;;
43893;SDS011;29556;50.846;4.442;2022-10-19T08:38:50;3.42;;;1.50;;
43893;SDS011;29556;50.846;4.442;2022-10-19T08:41:20;2.72;;;1.73;;
43893;SDS011;29556;50.846;4.442;2022-10-19T08:49:32;4.75;;;2.35;;
43893;SDS011;29556;50.846;4.442;2022-10-19T08:51:59;1.92;;;1.00;;
43893;SDS011;29556;50.846;4.442;2022-10-19T08:54:37;2.40;;;1.40;;
43893;SDS011;29556;50.846;4.442;2022-10-19T09:00:08;3.13;;;1.42;;
43893;SDS011;29556;50.846;4.442;2022-10-19T09:08:13;2.58;;;1.42;;
43893;SDS011;29556;50.846;4.442;2022-10-19T09:10:40;3.58;;;2.40;;
43893;SDS011;29556;50.846;4.442;2022-10-19T09:15:50;4.25;;;1.10;;
43893;SDS011;29556;50.846;4.442;2022-10-19T09:18:23;5.53;;;1.50;;
43893;SDS011;29556;50.846;4.442;2022-10-19T09:21:02;6.22;;;1.55;;
43893;SDS011;29556;50.846;4.442;2022-10-19T09:26:31;3.35;;;1.27;;
43893;SDS011;29556;50.846;4.442;2022-10-19T09:31:52;2.83;;;1.15;;
43893;SDS011;29556;50.846;4.442;2022-10-19T09:36:55;2.75;;;1.33;;
43893;SDS011;29556;50.846;4.442;2022-10-19T09:39:22;12.43;;;1.45;;
43893;SDS011;29556;50.846;4.442;2022-10-19T09:44:25;4.18;;;1.60;;
43893;SDS011;29556;50.846;4.442;2022-10-19T09:49:47;2.13;;;1.17;;
43893;SDS011;29556;50.846;4.442;2022-10-19T09:52:33;5.35;;;1.40;;
43893;SDS011;29556;50.846;4.442;2022-10-19T09:57:35;4.32;;;1.17;;
43893;SDS011;29556;50.846;4.442;2022-10-19T10:00:23;1.85;;;1.27;;
43893;SDS011;29556;50.846;4.442;2022-10-19T10:02:55;7.15;;;1.77;;
43893;SDS011;29556;50.846;4.442;2022-10-19T10:05:28;4.32;;;1.17;;
43893;SDS011;29556;50.846;4.442;2022-10-19T10:07:55;1.98;;;1.40;;
43893;SDS011;29556;50.846;4.442;2022-10-19T10:10:28;2.35;;;1.27;;
43893;SDS011;29556;50.846;4.442;2022-10-19T10:13:01;2.50;;;1.85;;
43893;SDS011;29556;50.846;4.442;2022-10-19T10:15:28;2.67;;;1.10;;
43893;SDS011;29556;50.846;4.442;2022-10-19T10:18:17;2.35;;;1.25;;
43893;SDS011;29556;50.846;4.442;2022-10-19T10:20:58;5.13;;;1.33;;
43893;SDS011;29556;50.846;4.442;2022-10-19T10:23:45;3.72;;;1.30;;
43893;SDS011;29556;50.846;4.442;2022-10-19T10:26:29;2.58;;;1.98;;
43893;SDS011;29556;50.846;4.442;2022-10-19T10:28:55;2.60;;;1.25;;
43893;SDS011;29556;50.846;4.442;2022-10-19T10:31:25;2.85;;;1.48;;
43893;SDS011;29556;50.846;4.442;2022-10-19T10:33:57;2.75;;;1.83;;
43893;SDS011;29556;50.846;4.442;2022-10-19T10:36:28;3.35;;;1.35;;
43893;SDS011;29556;50.846;4.442;2022-10-19T10:39:05;2.75;;;1.45;;
43893;SDS011;29556;50.846;4.442;2022-10-19T10:41:38;2.78;;;1.25;;
43893;SDS011;29556;50.846;4.442;2022-10-19T10:44:07;2.50;;;1.25;;
43893;SDS011;29556;50.846;4.442;2022-10-19T10:47:02;3.38;;;2.10;;
43893;SDS011;29556;50.846;4.442;2022-10-19T10:49:34;3.95;;;1.20;;
43893;SDS011;29556;50.846;4.442;2022-10-19T10:52:15;3.90;;;1.73;;
43893;SDS011;29556;50.846;4.442;2022-10-19T10:55:03;1.73;;;1.30;;
43893;SDS011;29556;50.846;4.442;2022-10-19T10:57:45;3.35;;;1.02;;
43893;SDS011;29556;50.846;4.442;2022-10-19T11:05:40;5.30;;;1.67;;
43893;SDS011;29556;50.846;4.442;2022-10-19T11:13:30;1.30;;;1.20;;
43893;SDS011;29556;50.846;4.442;2022-10-19T11:16:03;2.58;;;1.75;;
43893;SDS011;29556;50.846;4.442;2022-10-19T11:18:46;2.78;;;1.48;;
43893;SDS011;29556;50.846;4.442;2022-10-19T11:21:23;1.50;;;1.08;;
43893;SDS011;29556;50.846;4.442;2022-10-19T11:32:15;2.55;;;1.55;;
43893;SDS011;29556;50.846;4.442;2022-10-19T11:34:56;3.80;;;1.58;;
43893;SDS011;29556;50.846;4.442;2022-10-19T11:40:26;2.15;;;1.13;;
43893;SDS011;29556;50.846;4.442;2022-10-19T11:46:15;2.63;;;1.35;;
43893;SDS011;29556;50.846;4.442;2022-10-19T11:54:26;7.22;;;2.08;;
43893;SDS011;29556;50.846;4.442;2022-10-19T11:57:32;5.25;;;1.85;;
43893;SDS011;29556;50.846;4.442;2022-10-19T12:00:17;3.13;;;1.45;;
43893;SDS011;29556;50.846;4.442;2022-10-19T12:14:03;2.75;;;1.15;;
43893;SDS011;29556;50.846;4.442;2022-10-19T12:16:40;2.60;;;1.05;;
43893;SDS011;29556;50.846;4.442;2022-10-19T12:19:15;5.35;;;2.08;;
43893;SDS011;29556;50.846;4.442;2022-10-19T12:21:44;3.67;;;1.40;;
43893;SDS011;29556;50.846;4.442;2022-10-19T12:24:16;3.83;;;1.80;;
43893;SDS011;29556;50.846;4.442;2022-10-19T12:26:45;3.55;;;2.00;;
43893;SDS011;29556;50.846;4.442;2022-10-19T12:29:16;1.67;;;1.58;;
43893;SDS011;29556;50.846;4.442;2022-10-19T12:31:49;1.85;;;1.40;;
43893;SDS011;29556;50.846;4.442;2022-10-19T12:36:54;2.72;;;1.70;;
43893;SDS011;29556;50.846;4.442;2022-10-19T12:42:19;2.15;;;1.05;;
43893;SDS011;29556;50.846;4.442;2022-10-19T12:47:38;1.17;;;1.05;;
43893;SDS011;29556;50.846;4.442;2022-10-19T12:50:08;3.47;;;1.67;;
43893;SDS011;29556;50.846;4.442;2022-10-19T12:55:28;1.85;;;1.55;;
43893;SDS011;29556;50.846;4.442;2022-10-19T12:58:00;2.92;;;1.55;;
43893;SDS011;29556;50.846;4.442;2022-10-19T13:00:56;2.85;;;1.25;;
43893;SDS011;29556;50.846;4.442;2022-10-19T13:03:47;1.98;;;1.17;;
43893;SDS011;29556;50.846;4.442;2022-10-19T13:06:15;2.28;;;1.27;;
43893;SDS011;29556;50.846;4.442;2022-10-19T13:08:57;3.28;;;1.42;;
43893;SDS011;29556;50.846;4.442;2022-10-19T13:11:25;1.67;;;0.95;;
43893;SDS011;29556;50.846;4.442;2022-10-19T13:19:04;2.75;;;0.80;;
43893;SDS011;29556;50.846;4.442;2022-10-19T13:21:44;1.00;;;0.90;;
43893;SDS011;29556;50.846;4.442;2022-10-19T13:29:48;3.22;;;1.48;;
43893;SDS011;29556;50.846;4.442;2022-10-19T13:41:03;2.72;;;0.90;;
43893;SDS011;29556;50.846;4.442;2022-10-19T13:46:06;1.70;;;0.98;;
43893;SDS011;29556;50.846;4.442;2022-10-19T13:52:02;2.78;;;1.17;;
43893;SDS011;29556;50.846;4.442;2022-10-19T14:00:23;1.23;;;0.93;;
43893;SDS011;29556;50.846;4.442;2022-10-19T14:08:53;1.83;;;0.93;;
43893;SDS011;29556;50.846;4.442;2022-10-19T14:11:39;4.32;;;1.30;;
43893;SDS011;29556;50.846;4.442;2022-10-19T14:16:50;2.50;;;1.33;;
43893;SDS011;29556;50.846;4.442;2022-10-19T14:19:25;2.65;;;1.40;;
43893;SDS011;29556;50.846;4.442;2022-10-19T14:22:23;4.57;;;1.00;;
43893;SDS011;29556;50.846;4.442;2022-10-19T14:24:50;2.00;;;1.27;;
43893;SDS011;29556;50.846;4.442;2022-10-19T14:27:22;2.00;;;1.35;;
43893;SDS011;29556;50.846;4.442;2022-10-19T14:29:50;2.38;;;1.20;;
43893;SDS011;29556;50.846;4.442;2022-10-19T14:32:17;2.58;;;1.50;;
43893;SDS011;29556;50.846;4.442;2022-10-19T14:34:50;1.30;;;0.95;;
43893;SDS011;29556;50.846;4.442;2022-10-19T14:37:24;2.20;;;1.13;;
43893;SDS011;29556;50.846;4.442;2022-10-19T14:42:37;1.98;;;0.90;;
43893;SDS011;29556;50.846;4.442;2022-10-19T14:45:09;2.15;;;1.27;;
43893;SDS011;29556;50.846;4.442;2022-10-19T14:47:55;2.50;;;1.23;;
43893;SDS011;29556;50.846;4.442;2022-10-19T14:50:46;5.10;;;1.75;;
43893;SDS011;29556;50.846;4.442;2022-10-19T14:56:14;4.30;;;1.67;;
43893;SDS011;29556;50.846;4.442;2022-10-19T14:59:17;1.63;;;1.48;;
43893;SDS011;29556;50.846;4.442;2022-10-19T15:01:50;2.17;;;1.20;;
43893;SDS011;29556;50.846;4.442;2022-10-19T15:04:22;3.30;;;1.42;;
43893;SDS011;29556;50.846;4.442;2022-10-19T15:06:53;3.63;;;1.27;;
43893;SDS011;29556;50.846;4.442;2022-10-19T15:11:50;3.13;;;1.80;;
43893;SDS011;29556;50.846;4.442;2022-10-19T15:14:19;2.67;;;1.25;;
43893;SDS011;29556;50.846;4.442;2022-10-19T15:17:00;1.80;;;1.70;;
43893;SDS011;29556;50.846;4.442;2022-10-19T15:24:56;3.25;;;1.27;;
43893;SDS011;29556;50.846;4.442;2022-10-19T15:27:51;2.53;;;1.50;;
43893;SDS011;29556;50.846;4.442;2022-10-19T15:30:30;4.13;;;1.90;;
43893;SDS011;29556;50.846;4.442;2022-10-19T15:38:11;4.18;;;1.80;;
43893;SDS011;29556;50.846;4.442;2022-10-19T15:40:45;3.07;;;1.60;;
43893;SDS011;29556;50.846;4.442;2022-10-19T15:45:59;2.28;;;1.35;;
43893;SDS011;29556;50.846;4.442;2022-10-19T15:51:08;4.93;;;1.75;;
43893;SDS011;29556;50.846;4.442;2022-10-19T15:53:54;2.22;;;1.77;;
43893;SDS011;29556;50.846;4.442;2022-10-19T15:56:25;5.70;;;1.92;;
43893;SDS011;29556;50.846;4.442;2022-10-19T15:58:57;7.75;;;2.67;;
43893;SDS011;29556;50.846;4.442;2022-10-19T16:01:27;4.55;;;1.85;;
43893;SDS011;29556;50.846;4.442;2022-10-19T16:03:56;4.15;;;1.75;;
43893;SDS011;29556;50.846;4.442;2022-10-19T16:06:25;4.10;;;1.73;;
43893;SDS011;29556;50.846;4.442;2022-10-19T16:08:56;4.07;;;2.03;;
43893;SDS011;29556;50.846;4.442;2022-10-19T16:11:22;3.08;;;1.55;;
43893;SDS011;29556;50.846;4.442;2022-10-19T16:13:49;8.52;;;2.47;;
43893;SDS011;29556;50.846;4.442;2022-10-19T16:16:22;2.80;;;1.73;;
43893;SDS011;29556;50.846;4.442;2022-10-19T16:18:52;3.72;;;1.75;;
43893;SDS011;29556;50.846;4.442;2022-10-19T16:21:19;4.68;;;2.17;;
43893;SDS011;29556;50.846;4.442;2022-10-19T16:23:47;3.85;;;2.38;;
43893;SDS011;29556;50.846;4.442;2022-10-19T16:26:13;6.18;;;2.22;;
43893;SDS011;29556;50.846;4.442;2022-10-19T16:28:40;3.25;;;2.00;;
43893;SDS011;29556;50.846;4.442;2022-10-19T16:33:43;3.95;;;2.65;;
43893;SDS011;29556;50.846;4.442;2022-10-19T16:36:09;5.15;;;2.28;;
43893;SDS011;29556;50.846;4.442;2022-10-19T16:38:36;5.47;;;2.58;;
43893;SDS011;29556;50.846;4.442;2022-10-19T16:41:04;4.10;;;1.65;;
43893;SDS011;29556;50.846;4.442;2022-10-19T16:43:31;4.53;;;1.90;;
43893;SDS011;29556;50.846;4.442;2022-10-19T16:45:57;3.10;;;1.58;;
43893;SDS011;29556;50.846;4.442;2022-10-19T16:48:23;6.18;;;2.92;;
43893;SDS011;29556;50.846;4.442;2022-10-19T16:51:32;4.57;;;2.17;;
43893;SDS011;29556;50.846;4.442;2022-10-19T16:53:48;4.53;;;2.03;;
43893;SDS011;29556;50.846;4.442;2022-10-19T16:56:17;3.50;;;2.08;;
43893;SDS011;29556;50.846;4.442;2022-10-19T16:58:43;7.68;;;2.45;;
43893;SDS011;29556;50.846;4.442;2022-10-19T17:01:16;4.05;;;1.85;;
43893;SDS011;29556;50.846;4.442;2022-10-19T17:03:45;4.25;;;1.95;;
43893;SDS011;29556;50.846;4.442;2022-10-19T17:06:13;4.50;;;2.03;;
43893;SDS011;29556;50.846;4.442;2022-10-19T17:08:39;4.55;;;2.17;;
43893;SDS011;29556;50.846;4.442;2022-10-19T17:14:36;5.10;;;2.15;;
43893;SDS011;29556;50.846;4.442;2022-10-19T17:17:10;8.50;;;3.78;;
43893;SDS011;29556;50.846;4.442;2022-10-19T17:19:36;6.53;;;2.25;;
43893;SDS011;29556;50.846;4.442;2022-10-19T17:22:05;4.00;;;2.28;;
43893;SDS011;29556;50.846;4.442;2022-10-19T17:24:32;5.32;;;2.45;;
43893;SDS011;29556;50.846;4.442;2022-10-19T17:27:03;5.15;;;1.92;;
43893;SDS011;29556;50.846;4.442;2022-10-19T17:29:29;4.20;;;1.92;;
43893;SDS011;29556;50.846;4.442;2022-10-19T17:31:57;4.22;;;1.98;;
43893;SDS011;29556;50.846;4.442;2022-10-19T17:34:23;10.68;;;2.40;;
43893;SDS011;29556;50.846;4.442;2022-10-19T17:36:49;4.53;;;1.90;;
43893;SDS011;29556;50.846;4.442;2022-10-19T17:39:24;3.22;;;1.85;;
43893;SDS011;29556;50.846;4.442;2022-10-19T17:41:57;4.57;;;1.80;;
43893;SDS011;29556;50.846;4.442;2022-10-19T17:44:36;6.18;;;2.10;;
43893;SDS011;29556;50.846;4.442;2022-10-19T17:47:11;4.55;;;2.00;;
43893;SDS011;29556;50.846;4.442;2022-10-19T17:49:37;6.47;;;2.47;;
43893;SDS011;29556;50.846;4.442;2022-10-19T17:52:05;5.30;;;2.05;;
43893;SDS011;29556;50.846;4.442;2022-10-19T17:54:31;3.38;;;1.88;;
43893;SDS011;29556;50.846;4.442;2022-10-19T17:56:56;2.22;;;1.48;;
43893;SDS011;29556;50.846;4.442;2022-10-19T17:59:23;6.50;;;1.58;;
43893;SDS011;29556;50.846;4.442;2022-10-19T18:01:49;2.63;;;1.73;;
43893;SDS011;29556;50.846;4.442;2022-10-19T18:04:15;5.22;;;1.73;;
43893;SDS011;29556;50.846;4.442;2022-10-19T18:06:41;1.83;;;1.55;;